sensor_id;sensor_type;location;lat;lon;timestamp;P1;durP1;ratioP1;P2;durP2;ratioP2
29848;SDS011;16728;50.832;5.590;2022-12-18T00:01:57;74.97;;;34.72;;
29848;SDS011;16728;50.832;5.590;2022-12-18T00:05:00;74.90;;;33.83;;
29848;SDS011;16728;50.832;5.590;2022-12-18T00:08:02;75.40;;;34.90;;
29848;SDS011;16728;50.832;5.590;2022-12-18T00:11:11;69.85;;;33.95;;
29848;SDS011;16728;50.832;5.590;2022-12-18T00:14:14;74.05;;;34.90;;
29848;SDS011;16728;50.832;5.590;2022-12-18T00:17:16;72.82;;;33.97;;
29848;SDS011;16728;50.832;5.590;2022-12-18T00:20:18;78.63;;;34.90;;
29848;SDS011;16728;50.832;5.590;2022-12-18T00:23:26;70.57;;;34.63;;
29848;SDS011;16728;50.832;5.590;2022-12-18T00:26:30;69.35;;;33.33;;
29848;SDS011;16728;50.832;5.590;2022-12-18T00:29:33;77.22;;;34.88;;
29848;SDS011;16728;50.832;5.590;2022-12-18T00:32:35;78.80;;;35.78;;
29848;SDS011;16728;50.832;5.590;2022-12-18T00:35:38;77.03;;;34.58;;
29848;SDS011;16728;50.832;5.590;2022-12-18T00:38:40;76.65;;;34.88;;
29848;SDS011;16728;50.832;5.590;2022-12-18T00:41:42;72.20;;;35.38;;
29848;SDS011;16728;50.832;5.590;2022-12-18T00:45:02;79.63;;;35.90;;
29848;SDS011;16728;50.832;5.590;2022-12-18T00:48:12;82.10;;;36.35;;
29848;SDS011;16728;50.832;5.590;2022-12-18T00:51:14;73.80;;;34.88;;
29848;SDS011;16728;50.832;5.590;2022-12-18T00:54:16;83.70;;;36.28;;
29848;SDS011;16728;50.832;5.590;2022-12-18T00:57:18;91.03;;;37.63;;
29848;SDS011;16728;50.832;5.590;2022-12-18T01:00:20;86.00;;;37.83;;
29848;SDS011;16728;50.832;5.590;2022-12-18T01:03:23;89.78;;;36.97;;
29848;SDS011;16728;50.832;5.590;2022-12-18T01:06:25;79.95;;;37.70;;
29848;SDS011;16728;50.832;5.590;2022-12-18T01:09:27;75.72;;;34.45;;
29848;SDS011;16728;50.832;5.590;2022-12-18T01:12:28;83.40;;;35.42;;
29848;SDS011;16728;50.832;5.590;2022-12-18T01:15:30;82.93;;;36.67;;
29848;SDS011;16728;50.832;5.590;2022-12-18T01:18:32;80.32;;;36.50;;
29848;SDS011;16728;50.832;5.590;2022-12-18T01:21:34;80.07;;;36.38;;
29848;SDS011;16728;50.832;5.590;2022-12-18T01:24:36;84.90;;;35.83;;
29848;SDS011;16728;50.832;5.590;2022-12-18T01:27:38;78.97;;;35.45;;
29848;SDS011;16728;50.832;5.590;2022-12-18T01:30:40;78.10;;;33.67;;
29848;SDS011;16728;50.832;5.590;2022-12-18T01:33:42;70.32;;;31.40;;
29848;SDS011;16728;50.832;5.590;2022-12-18T01:36:45;72.18;;;32.53;;
29848;SDS011;16728;50.832;5.590;2022-12-18T01:39:46;72.30;;;32.80;;
29848;SDS011;16728;50.832;5.590;2022-12-18T01:42:52;70.78;;;32.45;;
29848;SDS011;16728;50.832;5.590;2022-12-18T01:45:54;71.40;;;33.25;;
29848;SDS011;16728;50.832;5.590;2022-12-18T01:48:57;73.90;;;32.00;;
29848;SDS011;16728;50.832;5.590;2022-12-18T01:52:01;76.10;;;32.97;;
29848;SDS011;16728;50.832;5.590;2022-12-18T01:55:03;72.35;;;32.28;;
29848;SDS011;16728;50.832;5.590;2022-12-18T01:58:07;73.60;;;33.83;;
29848;SDS011;16728;50.832;5.590;2022-12-18T02:01:08;75.93;;;33.53;;
29848;SDS011;16728;50.832;5.590;2022-12-18T02:04:21;77.55;;;34.03;;
29848;SDS011;16728;50.832;5.590;2022-12-18T02:07:27;67.43;;;33.22;;
29848;SDS011;16728;50.832;5.590;2022-12-18T02:10:55;73.43;;;33.30;;
29848;SDS011;16728;50.832;5.590;2022-12-18T02:17:22;75.75;;;32.97;;
29848;SDS011;16728;50.832;5.590;2022-12-18T02:20:48;67.72;;;31.52;;
29848;SDS011;16728;50.832;5.590;2022-12-18T02:27:11;60.05;;;30.13;;
29848;SDS011;16728;50.832;5.590;2022-12-18T02:30:13;63.08;;;29.90;;
29848;SDS011;16728;50.832;5.590;2022-12-18T02:33:16;61.45;;;29.15;;
29848;SDS011;16728;50.832;5.590;2022-12-18T02:36:22;65.22;;;30.50;;
29848;SDS011;16728;50.832;5.590;2022-12-18T02:39:25;59.67;;;29.60;;
29848;SDS011;16728;50.832;5.590;2022-12-18T02:42:30;57.25;;;28.42;;
29848;SDS011;16728;50.832;5.590;2022-12-18T02:45:33;61.63;;;29.98;;
29848;SDS011;16728;50.832;5.590;2022-12-18T02:48:35;61.20;;;29.20;;
29848;SDS011;16728;50.832;5.590;2022-12-18T02:51:40;59.00;;;27.97;;
29848;SDS011;16728;50.832;5.590;2022-12-18T03:01:49;51.28;;;26.80;;
29848;SDS011;16728;50.832;5.590;2022-12-18T03:05:14;57.42;;;25.17;;
29848;SDS011;16728;50.832;5.590;2022-12-18T03:08:23;51.87;;;25.83;;
29848;SDS011;16728;50.832;5.590;2022-12-18T03:11:29;48.03;;;24.83;;
29848;SDS011;16728;50.832;5.590;2022-12-18T03:15:02;48.00;;;23.92;;
29848;SDS011;16728;50.832;5.590;2022-12-18T03:18:25;46.20;;;23.75;;
29848;SDS011;16728;50.832;5.590;2022-12-18T03:21:42;48.30;;;24.15;;
29848;SDS011;16728;50.832;5.590;2022-12-18T03:24:47;43.10;;;22.45;;
29848;SDS011;16728;50.832;5.590;2022-12-18T03:27:51;43.85;;;22.98;;
29848;SDS011;16728;50.832;5.590;2022-12-18T03:30:58;42.25;;;23.27;;
29848;SDS011;16728;50.832;5.590;2022-12-18T03:34:04;40.72;;;22.10;;
29848;SDS011;16728;50.832;5.590;2022-12-18T03:37:10;45.70;;;23.10;;
29848;SDS011;16728;50.832;5.590;2022-12-18T03:40:12;45.33;;;22.77;;
29848;SDS011;16728;50.832;5.590;2022-12-18T03:43:36;40.05;;;22.75;;
29848;SDS011;16728;50.832;5.590;2022-12-18T03:46:54;41.40;;;22.33;;
29848;SDS011;16728;50.832;5.590;2022-12-18T03:50:18;46.17;;;24.00;;
29848;SDS011;16728;50.832;5.590;2022-12-18T03:56:39;45.17;;;24.52;;
29848;SDS011;16728;50.832;5.590;2022-12-18T03:59:49;46.45;;;23.33;;
29848;SDS011;16728;50.832;5.590;2022-12-18T04:02:55;41.88;;;23.00;;
29848;SDS011;16728;50.832;5.590;2022-12-18T04:06:00;45.45;;;22.25;;
29848;SDS011;16728;50.832;5.590;2022-12-18T04:12:05;46.23;;;23.33;;
29848;SDS011;16728;50.832;5.590;2022-12-18T04:15:07;42.33;;;22.45;;
29848;SDS011;16728;50.832;5.590;2022-12-18T04:18:11;39.95;;;22.58;;
29848;SDS011;16728;50.832;5.590;2022-12-18T04:21:13;39.75;;;21.88;;
29848;SDS011;16728;50.832;5.590;2022-12-18T04:24:15;39.63;;;21.67;;
29848;SDS011;16728;50.832;5.590;2022-12-18T04:27:16;40.42;;;21.45;;
29848;SDS011;16728;50.832;5.590;2022-12-18T04:30:18;39.80;;;21.65;;
29848;SDS011;16728;50.832;5.590;2022-12-18T04:33:20;38.75;;;20.55;;
29848;SDS011;16728;50.832;5.590;2022-12-18T04:36:22;34.63;;;20.48;;
29848;SDS011;16728;50.832;5.590;2022-12-18T04:39:24;37.65;;;20.40;;
29848;SDS011;16728;50.832;5.590;2022-12-18T04:42:26;37.03;;;19.92;;
29848;SDS011;16728;50.832;5.590;2022-12-18T04:45:29;37.30;;;20.27;;
29848;SDS011;16728;50.832;5.590;2022-12-18T04:48:32;37.28;;;20.88;;
29848;SDS011;16728;50.832;5.590;2022-12-18T04:51:34;32.75;;;20.20;;
29848;SDS011;16728;50.832;5.590;2022-12-18T04:54:36;33.70;;;18.67;;
29848;SDS011;16728;50.832;5.590;2022-12-18T04:57:37;36.30;;;17.63;;
29848;SDS011;16728;50.832;5.590;2022-12-18T05:00:39;32.47;;;17.20;;
29848;SDS011;16728;50.832;5.590;2022-12-18T05:03:41;32.05;;;17.88;;
29848;SDS011;16728;50.832;5.590;2022-12-18T05:06:44;27.60;;;17.63;;
29848;SDS011;16728;50.832;5.590;2022-12-18T05:09:46;39.05;;;18.38;;
29848;SDS011;16728;50.832;5.590;2022-12-18T05:12:48;33.78;;;17.42;;
29848;SDS011;16728;50.832;5.590;2022-12-18T05:16:01;33.92;;;19.00;;
29848;SDS011;16728;50.832;5.590;2022-12-18T05:19:04;30.52;;;17.65;;
29848;SDS011;16728;50.832;5.590;2022-12-18T05:22:05;33.55;;;17.85;;
29848;SDS011;16728;50.832;5.590;2022-12-18T05:25:07;32.55;;;17.92;;
29848;SDS011;16728;50.832;5.590;2022-12-18T05:28:09;31.27;;;17.00;;
29848;SDS011;16728;50.832;5.590;2022-12-18T05:31:12;31.92;;;18.13;;
29848;SDS011;16728;50.832;5.590;2022-12-18T05:34:14;35.25;;;18.85;;
29848;SDS011;16728;50.832;5.590;2022-12-18T05:37:15;29.02;;;17.63;;
29848;SDS011;16728;50.832;5.590;2022-12-18T05:40:18;29.45;;;17.15;;
29848;SDS011;16728;50.832;5.590;2022-12-18T05:43:20;24.83;;;14.80;;
29848;SDS011;16728;50.832;5.590;2022-12-18T05:49:25;29.37;;;16.30;;
29848;SDS011;16728;50.832;5.590;2022-12-18T05:52:27;31.08;;;17.60;;
29848;SDS011;16728;50.832;5.590;2022-12-18T05:55:32;28.45;;;16.17;;
29848;SDS011;16728;50.832;5.590;2022-12-18T05:58:37;25.48;;;16.17;;
29848;SDS011;16728;50.832;5.590;2022-12-18T06:01:39;27.90;;;16.55;;
29848;SDS011;16728;50.832;5.590;2022-12-18T06:04:42;32.03;;;16.95;;
29848;SDS011;16728;50.832;5.590;2022-12-18T06:07:43;26.10;;;15.93;;
29848;SDS011;16728;50.832;5.590;2022-12-18T06:10:49;21.83;;;11.90;;
29848;SDS011;16728;50.832;5.590;2022-12-18T06:13:53;27.70;;;16.17;;
29848;SDS011;16728;50.832;5.590;2022-12-18T06:16:58;31.08;;;16.00;;
29848;SDS011;16728;50.832;5.590;2022-12-18T06:20:01;29.85;;;16.15;;
29848;SDS011;16728;50.832;5.590;2022-12-18T06:23:03;28.13;;;15.30;;
29848;SDS011;16728;50.832;5.590;2022-12-18T06:26:07;26.63;;;16.30;;
29848;SDS011;16728;50.832;5.590;2022-12-18T06:29:10;27.65;;;16.10;;
29848;SDS011;16728;50.832;5.590;2022-12-18T06:32:12;33.55;;;16.40;;
29848;SDS011;16728;50.832;5.590;2022-12-18T06:35:13;28.10;;;16.02;;
29848;SDS011;16728;50.832;5.590;2022-12-18T06:38:15;30.25;;;17.05;;
29848;SDS011;16728;50.832;5.590;2022-12-18T06:41:18;28.52;;;15.98;;
29848;SDS011;16728;50.832;5.590;2022-12-18T06:44:21;27.35;;;16.83;;
29848;SDS011;16728;50.832;5.590;2022-12-18T06:47:23;24.75;;;15.05;;
29848;SDS011;16728;50.832;5.590;2022-12-18T06:50:25;28.13;;;16.42;;
29848;SDS011;16728;50.832;5.590;2022-12-18T06:53:27;33.03;;;17.17;;
29848;SDS011;16728;50.832;5.590;2022-12-18T06:56:29;30.33;;;17.75;;
29848;SDS011;16728;50.832;5.590;2022-12-18T06:59:32;28.35;;;15.48;;
29848;SDS011;16728;50.832;5.590;2022-12-18T07:02:34;20.38;;;12.35;;
29848;SDS011;16728;50.832;5.590;2022-12-18T07:05:39;19.33;;;12.07;;
29848;SDS011;16728;50.832;5.590;2022-12-18T07:08:42;25.50;;;15.25;;
29848;SDS011;16728;50.832;5.590;2022-12-18T07:11:44;29.00;;;15.35;;
29848;SDS011;16728;50.832;5.590;2022-12-18T07:14:46;23.02;;;13.70;;
29848;SDS011;16728;50.832;5.590;2022-12-18T07:17:48;25.77;;;13.73;;
29848;SDS011;16728;50.832;5.590;2022-12-18T07:20:50;23.38;;;14.10;;
29848;SDS011;16728;50.832;5.590;2022-12-18T07:23:51;27.25;;;13.90;;
29848;SDS011;16728;50.832;5.590;2022-12-18T07:26:53;25.67;;;14.27;;
29848;SDS011;16728;50.832;5.590;2022-12-18T07:29:55;25.38;;;13.60;;
29848;SDS011;16728;50.832;5.590;2022-12-18T07:32:57;20.48;;;12.30;;
29848;SDS011;16728;50.832;5.590;2022-12-18T07:35:59;21.98;;;12.82;;
29848;SDS011;16728;50.832;5.590;2022-12-18T07:39:02;24.98;;;12.88;;
29848;SDS011;16728;50.832;5.590;2022-12-18T07:42:04;25.90;;;13.93;;
29848;SDS011;16728;50.832;5.590;2022-12-18T07:45:25;25.88;;;13.00;;
29848;SDS011;16728;50.832;5.590;2022-12-18T07:48:27;22.10;;;12.90;;
29848;SDS011;16728;50.832;5.590;2022-12-18T07:51:29;27.63;;;14.13;;
29848;SDS011;16728;50.832;5.590;2022-12-18T07:54:31;22.17;;;12.40;;
29848;SDS011;16728;50.832;5.590;2022-12-18T07:57:33;17.25;;;9.57;;
29848;SDS011;16728;50.832;5.590;2022-12-18T08:00:51;25.42;;;13.05;;
29848;SDS011;16728;50.832;5.590;2022-12-18T08:03:53;22.83;;;12.95;;
29848;SDS011;16728;50.832;5.590;2022-12-18T08:06:55;24.47;;;13.87;;
29848;SDS011;16728;50.832;5.590;2022-12-18T08:09:58;24.33;;;13.27;;
29848;SDS011;16728;50.832;5.590;2022-12-18T08:13:00;18.17;;;12.35;;
29848;SDS011;16728;50.832;5.590;2022-12-18T08:16:06;26.20;;;13.60;;
29848;SDS011;16728;50.832;5.590;2022-12-18T08:19:08;23.63;;;14.02;;
29848;SDS011;16728;50.832;5.590;2022-12-18T08:22:10;25.42;;;13.50;;
29848;SDS011;16728;50.832;5.590;2022-12-18T08:25:12;26.93;;;14.07;;
29848;SDS011;16728;50.832;5.590;2022-12-18T08:28:15;22.70;;;13.73;;
29848;SDS011;16728;50.832;5.590;2022-12-18T08:31:17;25.60;;;13.77;;
29848;SDS011;16728;50.832;5.590;2022-12-18T08:34:21;20.90;;;12.35;;
29848;SDS011;16728;50.832;5.590;2022-12-18T08:37:23;16.67;;;10.07;;
29848;SDS011;16728;50.832;5.590;2022-12-18T08:40:25;25.15;;;14.57;;
29848;SDS011;16728;50.832;5.590;2022-12-18T08:43:27;25.40;;;13.10;;
29848;SDS011;16728;50.832;5.590;2022-12-18T08:46:48;23.48;;;13.55;;
29848;SDS011;16728;50.832;5.590;2022-12-18T08:49:50;24.20;;;14.30;;
29848;SDS011;16728;50.832;5.590;2022-12-18T08:52:51;22.90;;;14.15;;
29848;SDS011;16728;50.832;5.590;2022-12-18T08:55:53;29.10;;;14.50;;
29848;SDS011;16728;50.832;5.590;2022-12-18T08:58:57;24.30;;;14.43;;
29848;SDS011;16728;50.832;5.590;2022-12-18T09:01:59;22.55;;;13.38;;
29848;SDS011;16728;50.832;5.590;2022-12-18T09:05:01;19.20;;;12.83;;
29848;SDS011;16728;50.832;5.590;2022-12-18T09:08:03;21.98;;;13.15;;
29848;SDS011;16728;50.832;5.590;2022-12-18T09:11:09;22.30;;;13.13;;
29848;SDS011;16728;50.832;5.590;2022-12-18T09:14:13;23.70;;;13.20;;
29848;SDS011;16728;50.832;5.590;2022-12-18T09:17:15;19.30;;;12.98;;
29848;SDS011;16728;50.832;5.590;2022-12-18T09:20:17;22.83;;;13.57;;
29848;SDS011;16728;50.832;5.590;2022-12-18T09:23:20;21.83;;;13.55;;
29848;SDS011;16728;50.832;5.590;2022-12-18T09:26:23;20.75;;;13.30;;
29848;SDS011;16728;50.832;5.590;2022-12-18T09:29:26;22.63;;;12.43;;
29848;SDS011;16728;50.832;5.590;2022-12-18T09:32:28;21.03;;;13.10;;
29848;SDS011;16728;50.832;5.590;2022-12-18T09:35:30;19.67;;;12.00;;
29848;SDS011;16728;50.832;5.590;2022-12-18T09:38:32;22.95;;;13.07;;
29848;SDS011;16728;50.832;5.590;2022-12-18T09:44:53;18.70;;;11.48;;
29848;SDS011;16728;50.832;5.590;2022-12-18T09:47:55;21.27;;;13.25;;
29848;SDS011;16728;50.832;5.590;2022-12-18T09:54:04;23.85;;;12.43;;
29848;SDS011;16728;50.832;5.590;2022-12-18T09:57:19;20.33;;;11.60;;
29848;SDS011;16728;50.832;5.590;2022-12-18T10:00:24;30.80;;;19.38;;
29848;SDS011;16728;50.832;5.590;2022-12-18T10:03:27;23.00;;;14.38;;
29848;SDS011;16728;50.832;5.590;2022-12-18T10:06:32;24.15;;;13.77;;
29848;SDS011;16728;50.832;5.590;2022-12-18T10:09:43;22.63;;;14.15;;
29848;SDS011;16728;50.832;5.590;2022-12-18T10:13:04;21.55;;;13.30;;
29848;SDS011;16728;50.832;5.590;2022-12-18T10:16:29;30.20;;;15.38;;
29848;SDS011;16728;50.832;5.590;2022-12-18T10:20:09;24.08;;;14.63;;
29848;SDS011;16728;50.832;5.590;2022-12-18T10:26:27;24.55;;;14.00;;
29848;SDS011;16728;50.832;5.590;2022-12-18T10:29:29;27.25;;;15.25;;
29848;SDS011;16728;50.832;5.590;2022-12-18T10:32:31;23.08;;;13.65;;
29848;SDS011;16728;50.832;5.590;2022-12-18T10:35:32;24.17;;;14.60;;
29848;SDS011;16728;50.832;5.590;2022-12-18T10:38:36;24.10;;;15.00;;
29848;SDS011;16728;50.832;5.590;2022-12-18T10:41:38;22.38;;;14.50;;
29848;SDS011;16728;50.832;5.590;2022-12-18T10:44:40;23.95;;;15.27;;
29848;SDS011;16728;50.832;5.590;2022-12-18T10:47:51;20.65;;;14.75;;
29848;SDS011;16728;50.832;5.590;2022-12-18T10:50:53;22.02;;;13.50;;
29848;SDS011;16728;50.832;5.590;2022-12-18T10:54:18;18.80;;;13.60;;
29848;SDS011;16728;50.832;5.590;2022-12-18T11:00:38;25.13;;;13.63;;
29848;SDS011;16728;50.832;5.590;2022-12-18T11:03:44;22.13;;;14.98;;
29848;SDS011;16728;50.832;5.590;2022-12-18T11:10:14;26.23;;;16.10;;
29848;SDS011;16728;50.832;5.590;2022-12-18T11:13:19;22.80;;;15.88;;
29848;SDS011;16728;50.832;5.590;2022-12-18T11:16:23;24.75;;;13.82;;
29848;SDS011;16728;50.832;5.590;2022-12-18T11:22:34;21.55;;;14.40;;
29848;SDS011;16728;50.832;5.590;2022-12-18T11:25:37;23.35;;;15.25;;
29848;SDS011;16728;50.832;5.590;2022-12-18T11:28:49;23.80;;;15.00;;
29848;SDS011;16728;50.832;5.590;2022-12-18T11:32:09;24.30;;;16.60;;
29848;SDS011;16728;50.832;5.590;2022-12-18T11:35:59;25.30;;;15.68;;
29848;SDS011;16728;50.832;5.590;2022-12-18T11:38:44;27.00;;;16.20;;
29848;SDS011;16728;50.832;5.590;2022-12-18T11:45:30;22.73;;;14.27;;
29848;SDS011;16728;50.832;5.590;2022-12-18T11:52:09;23.60;;;14.82;;
29848;SDS011;16728;50.832;5.590;2022-12-18T12:01:55;23.45;;;14.90;;
29848;SDS011;16728;50.832;5.590;2022-12-18T12:08:37;25.55;;;14.65;;
29848;SDS011;16728;50.832;5.590;2022-12-18T12:22:29;22.88;;;15.52;;
29848;SDS011;16728;50.832;5.590;2022-12-18T12:25:52;25.50;;;15.57;;
29848;SDS011;16728;50.832;5.590;2022-12-18T12:32:36;25.02;;;15.25;;
29848;SDS011;16728;50.832;5.590;2022-12-18T12:39:21;32.60;;;17.38;;
29848;SDS011;16728;50.832;5.590;2022-12-18T12:42:31;28.65;;;16.58;;
29848;SDS011;16728;50.832;5.590;2022-12-18T12:49:14;27.27;;;16.35;;
29848;SDS011;16728;50.832;5.590;2022-12-18T12:55:41;29.88;;;20.33;;
29848;SDS011;16728;50.832;5.590;2022-12-18T13:01:59;28.65;;;18.15;;
29848;SDS011;16728;50.832;5.590;2022-12-18T13:05:28;29.13;;;19.77;;
29848;SDS011;16728;50.832;5.590;2022-12-18T13:08:32;30.33;;;19.73;;
29848;SDS011;16728;50.832;5.590;2022-12-18T13:18:47;30.42;;;19.40;;
29848;SDS011;16728;50.832;5.590;2022-12-18T13:21:54;30.73;;;19.97;;
29848;SDS011;16728;50.832;5.590;2022-12-18T13:24:57;30.08;;;19.63;;
29848;SDS011;16728;50.832;5.590;2022-12-18T13:31:14;28.60;;;18.33;;
29848;SDS011;16728;50.832;5.590;2022-12-18T13:34:36;30.30;;;18.48;;
29848;SDS011;16728;50.832;5.590;2022-12-18T13:37:42;37.95;;;19.20;;
29848;SDS011;16728;50.832;5.590;2022-12-18T13:43:50;31.20;;;19.58;;
29848;SDS011;16728;50.832;5.590;2022-12-18T13:46:54;32.47;;;19.00;;
29848;SDS011;16728;50.832;5.590;2022-12-18T13:49:56;31.13;;;19.15;;
29848;SDS011;16728;50.832;5.590;2022-12-18T13:52:59;20.97;;;14.00;;
29848;SDS011;16728;50.832;5.590;2022-12-18T13:56:01;28.57;;;18.57;;
29848;SDS011;16728;50.832;5.590;2022-12-18T14:02:17;30.88;;;18.60;;
29848;SDS011;16728;50.832;5.590;2022-12-18T14:05:24;33.13;;;19.25;;
29848;SDS011;16728;50.832;5.590;2022-12-18T14:08:29;33.58;;;20.73;;
29848;SDS011;16728;50.832;5.590;2022-12-18T14:11:35;34.38;;;20.73;;
29848;SDS011;16728;50.832;5.590;2022-12-18T14:14:41;31.98;;;21.05;;
29848;SDS011;16728;50.832;5.590;2022-12-18T14:17:50;31.10;;;19.45;;
29848;SDS011;16728;50.832;5.590;2022-12-18T14:21:02;31.52;;;20.77;;
29848;SDS011;16728;50.832;5.590;2022-12-18T14:27:27;33.25;;;19.80;;
29848;SDS011;16728;50.832;5.590;2022-12-18T14:30:30;32.05;;;21.08;;
29848;SDS011;16728;50.832;5.590;2022-12-18T14:33:43;33.55;;;21.13;;
29848;SDS011;16728;50.832;5.590;2022-12-18T14:36:53;40.13;;;23.92;;
29848;SDS011;16728;50.832;5.590;2022-12-18T14:40:01;34.23;;;19.50;;
29848;SDS011;16728;50.832;5.590;2022-12-18T14:43:11;41.17;;;23.67;;
29848;SDS011;16728;50.832;5.590;2022-12-18T14:49:44;48.13;;;27.63;;
29848;SDS011;16728;50.832;5.590;2022-12-18T14:52:46;52.78;;;29.65;;
29848;SDS011;16728;50.832;5.590;2022-12-18T14:55:48;49.05;;;28.70;;
29848;SDS011;16728;50.832;5.590;2022-12-18T14:58:52;43.17;;;25.92;;
29848;SDS011;16728;50.832;5.590;2022-12-18T15:05:15;44.35;;;24.83;;
29848;SDS011;16728;50.832;5.590;2022-12-18T15:08:34;38.50;;;23.00;;
29848;SDS011;16728;50.832;5.590;2022-12-18T15:14:42;32.38;;;20.35;;
29848;SDS011;16728;50.832;5.590;2022-12-18T15:17:44;30.63;;;18.40;;
29848;SDS011;16728;50.832;5.590;2022-12-18T15:20:53;33.45;;;19.73;;
29848;SDS011;16728;50.832;5.590;2022-12-18T15:24:00;30.05;;;17.88;;
29848;SDS011;16728;50.832;5.590;2022-12-18T15:27:02;27.40;;;16.25;;
29848;SDS011;16728;50.832;5.590;2022-12-18T15:33:25;26.23;;;15.52;;
29848;SDS011;16728;50.832;5.590;2022-12-18T15:36:31;22.20;;;13.82;;
29848;SDS011;16728;50.832;5.590;2022-12-18T15:39:32;21.60;;;13.52;;
29848;SDS011;16728;50.832;5.590;2022-12-18T15:42:36;21.92;;;12.57;;
29848;SDS011;16728;50.832;5.590;2022-12-18T15:45:57;20.85;;;12.48;;
29848;SDS011;16728;50.832;5.590;2022-12-18T15:48:59;21.23;;;12.60;;
29848;SDS011;16728;50.832;5.590;2022-12-18T15:52:04;25.75;;;14.27;;
29848;SDS011;16728;50.832;5.590;2022-12-18T15:55:16;25.17;;;13.27;;
29848;SDS011;16728;50.832;5.590;2022-12-18T15:58:39;20.00;;;12.45;;
29848;SDS011;16728;50.832;5.590;2022-12-18T16:01:42;23.98;;;13.05;;
29848;SDS011;16728;50.832;5.590;2022-12-18T16:04:46;25.10;;;13.85;;
29848;SDS011;16728;50.832;5.590;2022-12-18T16:07:48;23.42;;;14.45;;
29848;SDS011;16728;50.832;5.590;2022-12-18T16:10:50;25.23;;;15.52;;
29848;SDS011;16728;50.832;5.590;2022-12-18T16:13:52;21.80;;;13.17;;
29848;SDS011;16728;50.832;5.590;2022-12-18T16:16:56;26.50;;;15.68;;
29848;SDS011;16728;50.832;5.590;2022-12-18T16:19:59;24.10;;;14.15;;
29848;SDS011;16728;50.832;5.590;2022-12-18T16:23:01;24.90;;;13.95;;
29848;SDS011;16728;50.832;5.590;2022-12-18T16:26:03;22.20;;;15.23;;
29848;SDS011;16728;50.832;5.590;2022-12-18T16:29:05;22.80;;;14.05;;
29848;SDS011;16728;50.832;5.590;2022-12-18T16:32:11;20.35;;;14.07;;
29848;SDS011;16728;50.832;5.590;2022-12-18T16:35:15;21.95;;;13.95;;
29848;SDS011;16728;50.832;5.590;2022-12-18T16:38:17;22.58;;;14.25;;
29848;SDS011;16728;50.832;5.590;2022-12-18T16:41:19;24.48;;;14.55;;
29848;SDS011;16728;50.832;5.590;2022-12-18T16:44:33;22.77;;;14.07;;
29848;SDS011;16728;50.832;5.590;2022-12-18T16:47:36;21.77;;;13.60;;
29848;SDS011;16728;50.832;5.590;2022-12-18T16:50:38;22.08;;;13.13;;
29848;SDS011;16728;50.832;5.590;2022-12-18T16:53:40;24.25;;;14.35;;
29848;SDS011;16728;50.832;5.590;2022-12-18T16:56:43;22.15;;;14.00;;
29848;SDS011;16728;50.832;5.590;2022-12-18T16:59:45;20.70;;;13.52;;
29848;SDS011;16728;50.832;5.590;2022-12-18T17:05:50;23.75;;;13.73;;
29848;SDS011;16728;50.832;5.590;2022-12-18T17:08:55;21.13;;;12.95;;
29848;SDS011;16728;50.832;5.590;2022-12-18T17:12:01;20.23;;;12.35;;
29848;SDS011;16728;50.832;5.590;2022-12-18T17:15:05;23.55;;;13.52;;
29848;SDS011;16728;50.832;5.590;2022-12-18T17:18:07;21.88;;;13.38;;
29848;SDS011;16728;50.832;5.590;2022-12-18T17:21:09;23.83;;;12.68;;
29848;SDS011;16728;50.832;5.590;2022-12-18T17:24:12;24.13;;;13.70;;
29848;SDS011;16728;50.832;5.590;2022-12-18T17:27:14;24.42;;;13.63;;
29848;SDS011;16728;50.832;5.590;2022-12-18T17:30:16;22.33;;;14.02;;
29848;SDS011;16728;50.832;5.590;2022-12-18T17:33:18;22.90;;;13.80;;
29848;SDS011;16728;50.832;5.590;2022-12-18T17:36:20;24.42;;;14.38;;
29848;SDS011;16728;50.832;5.590;2022-12-18T17:39:23;25.05;;;14.50;;
29848;SDS011;16728;50.832;5.590;2022-12-18T17:42:24;23.42;;;14.05;;
29848;SDS011;16728;50.832;5.590;2022-12-18T17:45:26;24.48;;;13.93;;
29848;SDS011;16728;50.832;5.590;2022-12-18T17:48:28;20.83;;;13.05;;
29848;SDS011;16728;50.832;5.590;2022-12-18T17:51:30;21.30;;;12.57;;
29848;SDS011;16728;50.832;5.590;2022-12-18T17:54:33;22.98;;;12.88;;
29848;SDS011;16728;50.832;5.590;2022-12-18T17:57:35;22.48;;;13.00;;
29848;SDS011;16728;50.832;5.590;2022-12-18T18:00:37;20.58;;;13.70;;
29848;SDS011;16728;50.832;5.590;2022-12-18T18:03:39;20.25;;;12.40;;
29848;SDS011;16728;50.832;5.590;2022-12-18T18:09:44;24.08;;;13.05;;
29848;SDS011;16728;50.832;5.590;2022-12-18T18:12:47;24.27;;;13.20;;
29848;SDS011;16728;50.832;5.590;2022-12-18T18:16:08;22.15;;;12.45;;
29848;SDS011;16728;50.832;5.590;2022-12-18T18:19:12;21.88;;;12.68;;
29848;SDS011;16728;50.832;5.590;2022-12-18T18:22:15;23.35;;;13.77;;
29848;SDS011;16728;50.832;5.590;2022-12-18T18:28:21;22.57;;;12.93;;
29848;SDS011;16728;50.832;5.590;2022-12-18T18:31:23;22.80;;;12.73;;
29848;SDS011;16728;50.832;5.590;2022-12-18T18:34:27;24.67;;;13.43;;
29848;SDS011;16728;50.832;5.590;2022-12-18T18:37:31;26.05;;;13.30;;
29848;SDS011;16728;50.832;5.590;2022-12-18T18:40:32;22.92;;;13.25;;
29848;SDS011;16728;50.832;5.590;2022-12-18T18:43:34;26.63;;;14.05;;
29848;SDS011;16728;50.832;5.590;2022-12-18T18:46:37;22.50;;;13.53;;
29848;SDS011;16728;50.832;5.590;2022-12-18T18:49:39;22.95;;;13.05;;
29848;SDS011;16728;50.832;5.590;2022-12-18T18:52:41;27.95;;;13.73;;
29848;SDS011;16728;50.832;5.590;2022-12-18T18:55:44;24.35;;;13.88;;
29848;SDS011;16728;50.832;5.590;2022-12-18T18:59:04;24.77;;;13.35;;
29848;SDS011;16728;50.832;5.590;2022-12-18T19:02:07;22.13;;;13.57;;
29848;SDS011;16728;50.832;5.590;2022-12-18T19:05:12;25.20;;;13.50;;
29848;SDS011;16728;50.832;5.590;2022-12-18T19:08:16;25.20;;;14.00;;
29848;SDS011;16728;50.832;5.590;2022-12-18T19:11:22;21.83;;;14.23;;
29848;SDS011;16728;50.832;5.590;2022-12-18T19:14:44;25.17;;;14.48;;
29848;SDS011;16728;50.832;5.590;2022-12-18T19:17:46;26.33;;;15.75;;
29848;SDS011;16728;50.832;5.590;2022-12-18T19:20:58;25.80;;;14.63;;
29848;SDS011;16728;50.832;5.590;2022-12-18T19:24:05;26.25;;;16.10;;
29848;SDS011;16728;50.832;5.590;2022-12-18T19:27:09;25.40;;;15.70;;
29848;SDS011;16728;50.832;5.590;2022-12-18T19:30:11;30.67;;;15.38;;
29848;SDS011;16728;50.832;5.590;2022-12-18T19:33:13;28.40;;;14.82;;
29848;SDS011;16728;50.832;5.590;2022-12-18T19:36:36;33.45;;;19.98;;
29848;SDS011;16728;50.832;5.590;2022-12-18T19:39:39;25.73;;;16.25;;
29848;SDS011;16728;50.832;5.590;2022-12-18T19:42:41;26.33;;;15.98;;
29848;SDS011;16728;50.832;5.590;2022-12-18T19:45:43;28.55;;;15.25;;
29848;SDS011;16728;50.832;5.590;2022-12-18T19:48:45;27.23;;;14.95;;
29848;SDS011;16728;50.832;5.590;2022-12-18T19:51:47;27.88;;;15.32;;
29848;SDS011;16728;50.832;5.590;2022-12-18T19:54:50;32.17;;;16.23;;
29848;SDS011;16728;50.832;5.590;2022-12-18T19:57:52;27.60;;;15.43;;
29848;SDS011;16728;50.832;5.590;2022-12-18T20:00:54;29.80;;;16.30;;
29848;SDS011;16728;50.832;5.590;2022-12-18T20:03:56;32.60;;;17.60;;
29848;SDS011;16728;50.832;5.590;2022-12-18T20:07:01;27.75;;;16.35;;
29848;SDS011;16728;50.832;5.590;2022-12-18T20:10:05;31.25;;;16.48;;
29848;SDS011;16728;50.832;5.590;2022-12-18T20:13:09;27.70;;;16.10;;